Time;durP1;ratioP1;P1;durP2;ratioP2;P2;SDS_P1;SDS_P2;PMS_P1;PMS_P2;Temp;Humidity;BMP_temperature;BMP_pressure;BME280_temperature;BME280_humidity;BME280_pressure;Samples;Min_cycle;Max_cycle;Signal;HPM_P1;HPM_P2
2023/08/12 00:01:10;;;;;;;1999.90;999.90;;;20.10;99.90;;;;;;5075006;28;20048;-77
2023/08/12 00:03:35;;;;;;;1999.90;999.90;;;20.10;99.90;;;;;;5057147;28;20059;-77
2023/08/12 00:06:05;;;;;;;1999.90;999.90;;;20.10;99.90;;;;;;5057417;28;20119;-76
2023/08/12 00:08:30;;;;;;;1999.90;999.90;;;20.10;99.90;;;;;;5040668;28;20472;-77
2023/08/12 00:10:56;;;;;;;1999.90;999.90;;;20.10;99.90;;;;;;5074847;28;20051;-77
2023/08/12 00:13:22;;;;;;;1999.90;999.90;;;20.10;99.90;;;;;;5057525;28;20055;-77
2023/08/12 00:15:48;;;;;;;1999.90;999.90;;;20.10;99.90;;;;;;5075298;28;20071;-77
2023/08/12 00:18:14;;;;;;;1999.90;999.90;;;20.00;99.90;;;;;;5057908;28;20503;-77
2023/08/12 00:20:39;;;;;;;1999.90;999.90;;;20.10;99.90;;;;;;5074641;28;20074;-76
2023/08/12 00:23:05;;;;;;;1999.90;999.90;;;20.10;99.90;;;;;;5075147;28;20040;-76
2023/08/12 00:25:31;;;;;;;1999.90;999.90;;;20.00;99.90;;;;;;5074524;28;20045;-76
2023/08/12 00:27:57;;;;;;;1999.90;999.90;;;20.00;99.90;;;;;;5074342;28;20056;-77
2023/08/12 00:30:22;;;;;;;1999.90;999.90;;;20.00;99.90;;;;;;5057179;28;20053;-77
2023/08/12 00:32:48;;;;;;;1999.90;999.90;;;20.00;99.90;;;;;;5075299;28;20559;-78
2023/08/12 00:35:13;;;;;;;1999.90;999.90;;;20.00;99.90;;;;;;5056886;28;20045;-78
2023/08/12 00:37:39;;;;;;;1999.90;999.90;;;19.90;99.90;;;;;;5074614;28;20097;-78
2023/08/12 00:40:06;;;;;;;1999.90;999.90;;;20.00;99.90;;;;;;5040772;28;20052;-77
2023/08/12 00:42:32;;;;;;;1999.90;999.90;;;19.90;99.90;;;;;;5074038;28;20123;-78
2023/08/12 00:44:58;;;;;;;1999.90;999.90;;;19.90;99.90;;;;;;5040212;28;20056;-78
2023/08/12 00:47:24;;;;;;;1999.90;999.90;;;19.90;99.90;;;;;;5057348;28;20449;-78
2023/08/12 00:49:50;;;;;;;1999.90;999.90;;;19.90;99.90;;;;;;5074713;28;20056;-78
2023/08/12 00:52:17;;;;;;;1999.90;999.90;;;19.90;99.90;;;;;;5039892;28;20464;-77
2023/08/12 00:54:44;;;;;;;1999.90;999.90;;;19.90;99.90;;;;;;5056467;28;20045;-77
2023/08/12 00:57:09;;;;;;;1999.90;999.90;;;19.80;99.90;;;;;;5074026;28;20056;-78
2023/08/12 00:59:39;;;;;;;1999.90;999.90;;;19.80;99.90;;;;;;5074594;28;20062;-78
2023/08/12 01:02:05;;;;;;;1999.90;999.90;;;19.80;99.90;;;;;;5074374;28;20051;-76
2023/08/12 01:04:31;;;;;;;1999.90;999.90;;;19.80;99.90;;;;;;5056222;28;20462;-77
2023/08/12 01:06:56;;;;;;;1999.90;999.90;;;19.80;99.90;;;;;;5023498;28;20152;-76
2023/08/12 01:09:22;;;;;;;1999.90;999.90;;;19.70;99.90;;;;;;5056204;28;20049;-76
2023/08/12 01:12:10;;;;;;;1999.90;999.90;;;19.70;99.90;;;;;;5056398;28;20074;-78
2023/08/12 01:14:45;;;;;;;1999.90;999.90;;;19.70;99.90;;;;;;5056440;28;20048;-77
2023/08/12 01:17:13;;;;;;;1999.90;999.90;;;19.70;99.90;;;;;;5056890;28;20126;-77
2023/08/12 01:19:41;;;;;;;1999.90;999.90;;;19.70;99.90;;;;;;5055987;28;20044;-76
2023/08/12 01:22:11;;;;;;;1999.90;999.90;;;19.60;99.90;;;;;;5055922;28;20040;-76
2023/08/12 01:24:42;;;;;;;1999.90;999.90;;;19.60;99.90;;;;;;5056815;28;20483;-77
2023/08/12 01:27:09;;;;;;;1999.90;999.90;;;19.60;99.90;;;;;;5056305;28;20136;-76
2023/08/12 01:29:38;;;;;;;1999.90;999.90;;;19.60;99.90;;;;;;5074256;28;20514;-76
2023/08/12 01:32:13;;;;;;;1999.90;999.90;;;19.50;99.90;;;;;;5073512;28;20086;-76
2023/08/12 01:35:05;;;;;;;1999.90;999.90;;;19.50;99.90;;;;;;5055957;28;20484;-76
2023/08/12 01:37:33;;;;;;;1999.90;999.90;;;19.50;99.90;;;;;;5073591;28;20043;-76
2023/08/12 01:40:04;;;;;;;1999.90;999.90;;;19.50;99.90;;;;;;5055828;28;20044;-76
2023/08/12 01:42:32;;;;;;;1999.90;999.90;;;19.50;99.90;;;;;;5073896;28;20080;-76
2023/08/12 01:44:57;;;;;;;1999.90;999.90;;;19.50;99.90;;;;;;5055698;28;20060;-76
2023/08/12 01:47:23;;;;;;;1999.90;999.90;;;19.50;99.90;;;;;;5073447;28;20056;-76
2023/08/12 01:49:49;;;;;;;1999.90;999.90;;;19.50;99.90;;;;;;5073357;28;20040;-75
2023/08/12 01:52:15;;;;;;;1999.90;999.90;;;19.50;99.90;;;;;;5073945;28;20083;-76
2023/08/12 01:54:40;;;;;;;1999.90;999.90;;;19.40;99.90;;;;;;5076603;28;20400;-75
2023/08/12 01:57:07;;;;;;;1999.90;999.90;;;19.40;99.90;;;;;;5043963;28;20060;-76
2023/08/12 01:59:36;;;;;;;1999.90;999.90;;;19.40;99.90;;;;;;5077401;28;20048;-76
2023/08/12 02:02:03;;;;;;;1999.90;999.90;;;19.40;99.90;;;;;;5077341;28;20064;-76
2023/08/12 02:04:29;;;;;;;1999.90;999.90;;;19.30;99.90;;;;;;5077859;28;20083;-76
2023/08/12 02:06:55;;;;;;;1999.90;999.90;;;19.30;99.90;;;;;;5059631;28;20060;-77
2023/08/12 02:09:22;;;;;;;1999.90;999.90;;;19.30;99.90;;;;;;5042919;28;20040;-76
2023/08/12 02:11:48;;;;;;;1999.90;999.90;;;19.30;99.90;;;;;;5077144;28;20106;-76
2023/08/12 02:14:14;;;;;;;1999.90;999.90;;;19.30;99.90;;;;;;5059436;28;20047;-75
2023/08/12 02:16:40;;;;;;;1999.90;999.90;;;19.30;99.90;;;;;;5077075;28;20132;-76
2023/08/12 02:19:05;;;;;;;1999.90;999.90;;;19.30;99.90;;;;;;5043601;28;20135;-76
2023/08/12 02:21:31;;;;;;;1999.90;999.90;;;19.30;99.90;;;;;;5077706;28;20449;-76
2023/08/12 02:23:57;;;;;;;1999.90;999.90;;;19.30;99.90;;;;;;5078080;28;20049;-75
2023/08/12 02:26:23;;;;;;;1999.90;999.90;;;19.30;99.90;;;;;;5060066;28;20040;-76
2023/08/12 02:28:49;;;;;;;1999.90;999.90;;;19.20;99.90;;;;;;5039915;28;20488;-76
2023/08/12 02:31:15;;;;;;;1999.90;999.90;;;19.20;99.90;;;;;;5076720;28;20081;-81
2023/08/12 02:33:41;;;;;;;1999.90;999.90;;;19.30;99.90;;;;;;5060182;28;20364;-82
2023/08/12 02:36:07;;;;;;;1999.90;999.90;;;19.20;99.90;;;;;;5059703;28;20048;-82
2023/08/12 02:38:33;;;;;;;1999.90;999.90;;;19.20;99.90;;;;;;5058916;28;20080;-82
2023/08/12 02:40:58;;;;;;;1999.90;999.90;;;19.20;99.90;;;;;;5076720;28;20044;-81
2023/08/12 02:43:24;;;;;;;1999.90;999.90;;;19.20;99.90;;;;;;5076836;28;20496;-81
2023/08/12 02:45:50;;;;;;;1999.90;999.90;;;19.20;99.90;;;;;;5059427;28;20135;-80
2023/08/12 02:48:16;;;;;;;1999.90;999.90;;;19.20;99.90;;;;;;5043378;28;20455;-80
2023/08/12 02:50:41;;;;;;;1999.90;999.90;;;19.20;99.90;;;;;;5076709;28;20040;-80
2023/08/12 02:53:08;;;;;;;1999.90;999.90;;;19.20;99.90;;;;;;5025908;28;20392;-78
2023/08/12 02:55:33;;;;;;;1999.90;999.90;;;19.20;99.90;;;;;;5076546;28;20080;-80
2023/08/12 02:58:00;;;;;;;1999.90;999.90;;;19.20;99.90;;;;;;5076472;28;20083;-80
2023/08/12 03:00:27;;;;;;;1999.90;999.90;;;19.20;99.90;;;;;;5076441;28;20048;-79
2023/08/12 03:02:56;;;;;;;1999.90;999.90;;;19.20;99.90;;;;;;5058685;28;20480;-79
2023/08/12 03:05:22;;;;;;;1999.90;999.90;;;19.30;99.90;;;;;;5041711;28;20121;-79
2023/08/12 03:07:48;;;;;;;1999.90;999.90;;;19.30;99.90;;;;;;5058949;28;20052;-79
2023/08/12 03:10:14;;;;;;;1999.90;999.90;;;19.30;99.90;;;;;;5076243;28;20052;-80
2023/08/12 03:12:40;;;;;;;1999.90;999.90;;;19.30;99.90;;;;;;5042306;28;20044;-79
2023/08/12 03:15:07;;;;;;;1999.90;999.90;;;19.30;99.90;;;;;;5076554;28;20080;-80
2023/08/12 03:17:33;;;;;;;1999.90;999.90;;;19.30;99.90;;;;;;5077015;28;20048;-80
2023/08/12 03:19:59;;;;;;;1999.90;999.90;;;19.30;99.90;;;;;;5058428;28;20079;-80
2023/08/12 03:22:27;;;;;;;1999.90;999.90;;;19.30;99.90;;;;;;5075984;28;20036;-80
2023/08/12 03:24:53;;;;;;;1999.90;999.90;;;19.30;99.90;;;;;;5076071;28;20048;-79
2023/08/12 03:27:19;;;;;;;1999.90;999.90;;;19.30;99.90;;;;;;5057917;28;20101;-80
2023/08/12 03:29:45;;;;;;;1999.90;999.90;;;19.30;99.90;;;;;;5057906;28;20060;-80
2023/08/12 03:32:11;;;;;;;1999.90;999.90;;;19.40;99.90;;;;;;5041914;28;20052;-79
2023/08/12 03:34:36;;;;;;;1999.90;999.90;;;19.40;99.90;;;;;;5041632;28;20052;-80
2023/08/12 03:37:03;;;;;;;1999.90;999.90;;;19.40;99.90;;;;;;5075804;28;20048;-79
2023/08/12 03:39:28;;;;;;;1999.90;999.90;;;19.40;99.90;;;;;;5075634;28;20048;-81
2023/08/12 03:41:54;;;;;;;1999.90;999.90;;;19.40;99.90;;;;;;5075641;28;20048;-79
2023/08/12 03:44:20;;;;;;;1999.90;999.90;;;19.30;99.90;;;;;;5075685;28;20526;-79
2023/08/12 03:46:46;;;;;;;1999.90;999.90;;;19.30;99.90;;;;;;5041394;28;20059;-80
2023/08/12 03:49:11;;;;;;;1999.90;999.90;;;19.30;99.90;;;;;;5041861;28;20059;-80
2023/08/12 03:51:37;;;;;;;1999.90;999.90;;;19.30;99.90;;;;;;5058170;28;20052;-80
2023/08/12 03:54:03;;;;;;;1999.90;999.90;;;19.30;99.90;;;;;;5057655;28;20423;-80
2023/08/12 03:56:29;;;;;;;1999.90;999.90;;;19.30;99.90;;;;;;5058527;28;20127;-81
2023/08/12 03:58:55;;;;;;;1999.90;999.90;;;19.30;99.90;;;;;;5076197;28;20491;-80
2023/08/12 04:01:21;;;;;;;1999.90;999.90;;;19.30;99.90;;;;;;5076141;28;20491;-81
2023/08/12 04:03:47;;;;;;;1999.90;999.90;;;19.30;99.90;;;;;;5040676;28;20127;-80
2023/08/12 04:06:12;;;;;;;1999.90;999.90;;;19.30;99.90;;;;;;5057418;28;20110;-81
2023/08/12 04:08:38;;;;;;;1999.90;999.90;;;19.20;99.90;;;;;;5040572;28;20439;-80
2023/08/12 04:11:04;;;;;;;1999.90;999.90;;;19.20;99.90;;;;;;5057424;28;20045;-80
2023/08/12 04:13:30;;;;;;;1999.90;999.90;;;19.20;99.90;;;;;;5057403;28;20140;-80
2023/08/12 04:15:56;;;;;;;1999.90;999.90;;;19.20;99.90;;;;;;5039951;28;20049;-81
2023/08/12 04:18:22;;;;;;;1999.90;999.90;;;19.20;99.90;;;;;;5057438;28;20066;-80
2023/08/12 04:20:49;;;;;;;1999.90;999.90;;;19.20;99.90;;;;;;5057533;28;20062;-81
2023/08/12 04:23:15;;;;;;;1999.90;999.90;;;19.20;99.90;;;;;;5074886;28;20053;-80
2023/08/12 04:25:46;;;;;;;1999.90;999.90;;;19.20;99.90;;;;;;5057539;28;20064;-79
2023/08/12 04:28:13;;;;;;;1999.90;999.90;;;19.30;99.90;;;;;;5040532;28;20092;-79
2023/08/12 04:30:46;;;;;;;1999.90;999.90;;;19.20;99.90;;;;;;5074749;28;20048;-79
2023/08/12 04:33:15;;;;;;;1999.90;999.90;;;19.30;99.90;;;;;;5057395;28;20052;-78
2023/08/12 04:35:41;;;;;;;1999.90;999.90;;;19.30;99.90;;;;;;5056906;28;20048;-79
2023/08/12 04:38:07;;;;;;;1999.90;999.90;;;19.30;99.90;;;;;;5057228;28;20495;-81
2023/08/12 04:40:33;;;;;;;1999.90;999.90;;;19.30;99.90;;;;;;5074994;28;20044;-79
2023/08/12 04:42:59;;;;;;;1999.90;999.90;;;19.30;99.90;;;;;;5074398;28;20040;-78
2023/08/12 04:45:25;;;;;;;1999.90;999.90;;;19.30;99.90;;;;;;5075036;28;20041;-79
2023/08/12 04:47:51;;;;;;;1999.90;999.90;;;19.30;99.90;;;;;;5056817;28;20077;-79
2023/08/12 04:50:17;;;;;;;1999.90;999.90;;;19.30;99.90;;;;;;5074331;28;20475;-79
2023/08/12 04:52:43;;;;;;;1999.90;999.90;;;19.30;99.90;;;;;;5074270;28;20036;-78
2023/08/12 04:55:10;;;;;;;1999.90;999.90;;;19.30;99.90;;;;;;5056987;28;20052;-79
2023/08/12 04:57:36;;;;;;;1999.90;999.90;;;19.30;99.90;;;;;;5074502;28;20479;-80
2023/08/12 05:00:03;;;;;;;1999.90;999.90;;;19.40;99.90;;;;;;5039711;28;20110;-79
2023/08/12 05:02:28;;;;;;;1999.90;999.90;;;19.40;99.90;;;;;;5074090;28;20041;-79
2023/08/12 05:04:54;;;;;;;1999.90;999.90;;;19.40;99.90;;;;;;5074076;28;20094;-79
2023/08/12 05:07:20;;;;;;;1999.90;999.90;;;19.40;99.90;;;;;;5039858;28;20052;-79
2023/08/12 05:09:45;;;;;;;1999.90;999.90;;;19.40;99.90;;;;;;5057069;28;20135;-79
2023/08/12 05:12:12;;;;;;;1999.90;999.90;;;19.40;99.90;;;;;;5056245;28;20055;-79
2023/08/12 05:14:39;;;;;;;1999.90;999.90;;;19.40;99.90;;;;;;5073916;28;20052;-79
2023/08/12 05:17:05;;;;;;;1999.90;999.90;;;19.40;99.90;;;;;;5057176;28;20044;-79
2023/08/12 05:19:31;;;;;;;1999.90;999.90;;;19.40;99.90;;;;;;5057121;28;20076;-80
2023/08/12 05:21:57;;;;;;;1999.90;999.90;;;19.40;99.90;;;;;;5056560;28;20499;-80
2023/08/12 05:24:22;;;;;;;1999.90;999.90;;;19.50;99.90;;;;;;5074660;28;20048;-80
2023/08/12 05:26:48;;;;;;;1999.90;999.90;;;19.50;99.90;;;;;;5056500;28;20045;-81
2023/08/12 05:29:14;;;;;;;1999.90;999.90;;;19.50;99.90;;;;;;5054611;28;20084;-80
2023/08/12 05:31:39;;;;;;;1999.90;999.90;;;19.50;99.90;;;;;;5055850;28;20078;-78
2023/08/12 05:34:05;;;;;;;1999.90;999.90;;;19.50;99.90;;;;;;5073696;28;20041;-79
2023/08/12 05:36:31;;;;;;;1999.90;999.90;;;19.50;99.90;;;;;;5055882;28;20127;-80
2023/08/12 05:38:57;;;;;;;1999.90;999.90;;;19.60;99.90;;;;;;5055702;28;20488;-80
2023/08/12 05:41:22;;;;;;;1999.90;999.90;;;19.60;99.90;;;;;;5073568;28;20037;-80
2023/08/12 05:43:48;;;;;;;1999.90;999.90;;;19.60;99.90;;;;;;5056508;28;20131;-79
2023/08/12 05:46:14;;;;;;;1999.90;999.90;;;19.60;99.90;;;;;;5074380;28;20045;-80
2023/08/12 05:48:40;;;;;;;1999.90;999.90;;;19.70;99.90;;;;;;5055787;28;20092;-79
2023/08/12 05:51:06;;;;;;;1999.90;999.90;;;19.70;99.90;;;;;;5073604;28;20056;-78
2023/08/12 05:53:32;;;;;;;1999.90;999.90;;;19.70;99.90;;;;;;5055648;28;20553;-79
2023/08/12 05:55:58;;;;;;;1999.90;999.90;;;19.70;99.90;;;;;;5074105;28;20045;-78
2023/08/12 05:58:24;;;;;;;1999.90;999.90;;;19.80;99.90;;;;;;5073465;28;20074;-77
2023/08/12 06:00:50;;;;;;;1999.90;999.90;;;19.80;99.90;;;;;;5055796;28;20055;-77
2023/08/12 06:03:16;;;;;;;1999.90;999.90;;;19.80;99.90;;;;;;5073553;28;20079;-77
2023/08/12 06:05:47;;;;;;;1999.90;999.90;;;19.90;99.90;;;;;;5074189;28;20098;-78
2023/08/12 06:08:13;;;;;;;1999.90;999.90;;;19.90;99.90;;;;;;5074032;28;20048;-78
2023/08/12 06:10:39;;;;;;;1999.90;999.90;;;19.90;99.90;;;;;;5073805;28;20036;-78
2023/08/12 06:13:05;;;;;;;1999.90;999.90;;;19.90;99.90;;;;;;5073331;28;20097;-78
2023/08/12 06:15:31;;;;;;;1999.90;999.90;;;20.00;99.90;;;;;;5073358;28;20051;-77
2023/08/12 06:17:57;;;;;;;1999.90;999.90;;;20.00;99.90;;;;;;5073294;28;20048;-77
2023/08/12 06:20:24;;;;;;;1999.90;999.90;;;20.10;99.90;;;;;;5072975;28;20110;-78
2023/08/12 06:22:51;;;;;;;1999.90;999.90;;;20.00;99.90;;;;;;5055709;28;20045;-78
2023/08/12 06:25:17;;;;;;;1999.90;999.90;;;20.10;99.90;;;;;;5074047;28;20338;-77
2023/08/12 06:27:43;;;;;;;1999.90;999.90;;;20.10;99.90;;;;;;5073195;28;20048;-78
2023/08/12 06:30:10;;;;;;;1999.90;999.90;;;20.20;99.90;;;;;;5073291;28;20095;-77
2023/08/12 06:32:36;;;;;;;1999.90;999.90;;;20.20;99.90;;;;;;5055531;28;20480;-78
2023/08/12 06:35:01;;;;;;;1999.90;999.90;;;20.30;99.90;;;;;;5055269;28;20051;-77
2023/08/12 06:37:27;;;;;;;1999.90;999.90;;;20.30;99.90;;;;;;5073113;28;20480;-77
2023/08/12 06:39:53;;;;;;;1999.90;999.90;;;20.40;99.90;;;;;;5074991;28;20044;-77
2023/08/12 06:42:19;;;;;;;1999.90;999.90;;;20.40;99.90;;;;;;5058881;28;20050;-78
2023/08/12 06:44:45;;;;;;;1999.90;999.90;;;20.40;99.90;;;;;;5058924;28;20040;-78
2023/08/12 06:47:11;;;;;;;1999.90;999.90;;;20.40;99.90;;;;;;5058905;28;20091;-78
2023/08/12 06:49:36;;;;;;;1999.90;999.90;;;20.50;99.90;;;;;;5059017;28;20049;-78
2023/08/12 06:52:02;;;;;;;1999.90;999.90;;;20.50;99.90;;;;;;5076757;28;20045;-78
2023/08/12 06:54:28;;;;;;;1999.90;999.90;;;20.50;99.90;;;;;;5042176;28;20052;-77
2023/08/12 06:56:54;;;;;;;1999.90;999.90;;;20.50;99.90;;;;;;5059075;28;20430;-76
2023/08/12 06:59:19;;;;;;;1999.90;999.90;;;20.50;99.90;;;;;;5077195;28;20045;-77
2023/08/12 07:01:45;;;;;;;1999.90;999.90;;;20.50;99.90;;;;;;5076457;28;20105;-77
2023/08/12 07:04:11;;;;;;;1999.90;999.90;;;20.50;99.90;;;;;;5076365;28;20087;-77
2023/08/12 07:06:36;;;;;;;1999.90;999.90;;;20.50;99.90;;;;;;5042292;28;20491;-77
2023/08/12 07:09:03;;;;;;;1999.90;999.90;;;20.50;99.90;;;;;;5042788;28;20037;-77
2023/08/12 07:11:28;;;;;;;1999.90;999.90;;;20.60;99.90;;;;;;5058571;28;20062;-75
2023/08/12 07:13:54;;;;;;;1999.90;999.90;;;20.60;99.90;;;;;;5076118;28;20040;-77
2023/08/12 07:16:20;;;;;;;1999.90;999.90;;;20.60;99.90;;;;;;5076125;28;20083;-77
2023/08/12 07:18:45;;;;;;;1999.90;999.90;;;20.60;99.90;;;;;;5059344;28;20037;-76
2023/08/12 07:21:11;;;;;;;1999.90;999.90;;;20.60;99.90;;;;;;5077366;28;20106;-76
2023/08/12 07:23:37;;;;;;;1999.90;999.90;;;20.60;99.90;;;;;;5058116;28;20044;-76
2023/08/12 07:26:02;;;;;;;1999.90;999.90;;;20.70;99.90;;;;;;5025158;28;20442;-76
2023/08/12 07:28:28;;;;;;;1999.90;999.90;;;20.70;99.90;;;;;;5039788;28;20407;-77
2023/08/12 07:30:54;;;;;;;1999.90;999.90;;;20.60;99.90;;;;;;5058891;28;20041;-77
2023/08/12 07:33:21;;;;;;;1999.90;999.90;;;20.60;99.90;;;;;;5058132;28;20400;-76
2023/08/12 07:35:47;;;;;;;1999.90;999.90;;;20.70;99.90;;;;;;5076450;28;20056;-76
2023/08/12 07:38:12;;;;;;;1999.90;999.90;;;20.70;99.90;;;;;;5076391;28;20056;-76
2023/08/12 07:40:38;;;;;;;1999.90;999.90;;;20.70;99.90;;;;;;5076063;28;20065;-76
2023/08/12 07:43:04;;;;;;;1999.90;999.90;;;20.70;99.90;;;;;;5075621;28;20076;-77
2023/08/12 07:45:29;;;;;;;1999.90;999.90;;;20.70;99.90;;;;;;5075975;28;20040;-76
2023/08/12 07:47:55;;;;;;;1999.90;999.90;;;20.70;99.90;;;;;;5057837;28;20083;-76
2023/08/12 07:50:21;;;;;;;1999.90;999.90;;;20.70;99.90;;;;;;5075248;28;20040;-76
2023/08/12 07:52:46;;;;;;;1999.90;999.90;;;20.70;99.90;;;;;;5074957;28;20392;-78
2023/08/12 07:55:12;;;;;;;1999.90;999.90;;;20.70;99.90;;;;;;5076254;28;20163;-76
2023/08/12 07:57:38;;;;;;;1999.90;999.90;;;20.70;99.90;;;;;;5075734;28;20395;-75
2023/08/12 08:00:05;;;;;;;1999.90;999.90;;;20.70;99.90;;;;;;5075471;28;20044;-79
2023/08/12 08:02:30;;;;;;;1999.90;999.90;;;20.70;99.90;;;;;;5075807;28;20048;-78
2023/08/12 08:04:56;;;;;;;1999.90;999.90;;;20.70;99.90;;;;;;5058051;28;20131;-79
2023/08/12 08:07:22;;;;;;;1999.90;999.90;;;20.70;99.90;;;;;;5057426;28;20076;-78
2023/08/12 08:09:48;;;;;;;1999.90;999.90;;;20.80;99.90;;;;;;5075168;28;20055;-79
2023/08/12 08:12:13;;;;;;;1999.90;999.90;;;20.70;99.90;;;;;;5040863;28;20549;-77
2023/08/12 08:14:39;;;;;;;1999.90;999.90;;;20.80;99.90;;;;;;5057425;28;20091;-77
2023/08/12 08:17:06;;;;;;;1999.90;999.90;;;20.80;99.90;;;;;;5057354;28;20094;-75
2023/08/12 08:19:32;;;;;;;1999.90;999.90;;;20.80;99.90;;;;;;5041484;28;20127;-76
2023/08/12 08:21:58;;;;;;;1999.90;999.90;;;20.80;99.90;;;;;;5057306;28;20124;-76
2023/08/12 08:24:24;;;;;;;1999.90;999.90;;;20.80;99.90;;;;;;5024216;28;20052;-77
2023/08/12 08:26:49;;;;;;;1999.90;999.90;;;20.80;99.90;;;;;;5057556;28;20044;-78
2023/08/12 08:29:15;;;;;;;1999.90;999.90;;;20.80;99.90;;;;;;5056637;28;20056;-77
2023/08/12 08:31:41;;;;;;;1999.90;999.90;;;20.80;99.90;;;;;;5074715;28;20093;-77
2023/08/12 08:34:07;;;;;;;1999.90;999.90;;;20.90;99.90;;;;;;5075234;28;20254;-78
2023/08/12 08:36:32;;;;;;;1999.90;999.90;;;20.90;99.90;;;;;;5057177;28;20472;-78
2023/08/12 08:38:58;;;;;;;1999.90;999.90;;;20.90;99.90;;;;;;5040148;28;20495;-77
2023/08/12 08:41:24;;;;;;;1999.90;999.90;;;20.90;99.90;;;;;;5074514;28;20044;-78
2023/08/12 08:43:52;;;;;;;1999.90;999.90;;;20.90;99.90;;;;;;5057163;28;20411;-77
2023/08/12 08:46:20;;;;;;;1999.90;999.90;;;20.90;99.90;;;;;;5074501;28;20131;-77
2023/08/12 08:48:48;;;;;;;1999.90;999.90;;;20.90;99.90;;;;;;5057599;28;20411;-77
2023/08/12 08:51:14;;;;;;;1999.90;999.90;;;20.90;99.90;;;;;;5056792;28;20055;-77
2023/08/12 08:53:41;;;;;;;1999.90;999.90;;;20.90;99.90;;;;;;5074883;28;20045;-79
2023/08/12 08:56:11;;;;;;;1999.90;999.90;;;20.90;99.90;;;;;;5056509;28;20053;-78
2023/08/12 08:58:37;;;;;;;1999.90;999.90;;;20.90;99.90;;;;;;5057400;28;20040;-78
2023/08/12 09:01:05;;;;;;;1999.90;999.90;;;20.90;99.90;;;;;;5074940;28;20044;-78
2023/08/12 09:03:33;;;;;;;1999.90;999.90;;;20.90;99.90;;;;;;5056684;28;20048;-78
2023/08/12 09:05:59;;;;;;;1999.90;999.90;;;20.90;99.90;;;;;;5074126;28;20044;-78
2023/08/12 09:08:27;;;;;;;1999.90;999.90;;;20.90;99.90;;;;;;5074091;28;20118;-78
2023/08/12 09:10:54;;;;;;;1999.90;999.90;;;20.90;99.90;;;;;;5073889;28;20055;-80
2023/08/12 09:13:20;;;;;;;1999.90;999.90;;;21.00;99.90;;;;;;5056273;28;20055;-79
2023/08/12 09:15:45;;;;;;;1999.90;999.90;;;21.00;99.90;;;;;;5074498;28;20036;-79
2023/08/12 09:18:11;;;;;;;1999.90;999.90;;;21.00;99.90;;;;;;5056347;28;20123;-78
2023/08/12 09:20:37;;;;;;;1999.90;999.90;;;21.00;99.90;;;;;;5073888;28;20101;-79
2023/08/12 09:23:03;;;;;;;1999.90;999.90;;;21.00;99.90;;;;;;5073740;28;20396;-80
2023/08/12 09:25:32;;;;;;;1999.90;999.90;;;21.00;99.90;;;;;;5073787;28;20036;-80
2023/08/12 09:28:01;;;;;;;1999.90;999.90;;;21.10;99.90;;;;;;5055868;28;20084;-80
2023/08/12 09:30:31;;;;;;;1999.90;999.90;;;21.10;99.90;;;;;;5056677;28;20392;-83
2023/08/12 09:33:02;;;;;;;1999.90;999.90;;;21.10;99.90;;;;;;5039488;28;20537;-83
2023/08/12 09:35:38;;;;;;;1999.90;999.90;;;21.10;99.90;;;;;;5055981;28;20056;-83
2023/08/12 09:38:10;;;;;;;1999.90;999.90;;;21.00;99.90;;;;;;5074021;28;20048;-82
2023/08/12 09:40:37;;;;;;;1999.90;999.90;;;21.00;99.90;;;;;;5056706;28;20052;-83
2023/08/12 09:43:03;;;;;;;1999.90;999.90;;;21.00;99.90;;;;;;5055700;28;20048;-82
2023/08/12 09:45:31;;;;;;;1999.90;999.90;;;21.00;99.90;;;;;;5073622;28;20049;-82
2023/08/12 09:47:57;;;;;;;1999.90;999.90;;;20.90;99.90;;;;;;5056256;28;20430;-82
2023/08/12 09:50:25;;;;;;;1999.90;999.90;;;20.90;99.90;;;;;;5073619;28;20045;-82
2023/08/12 09:52:51;;;;;;;1999.90;999.90;;;20.90;99.90;;;;;;5073624;28;20102;-80
2023/08/12 09:55:19;;;;;;;1999.90;999.90;;;20.80;99.90;;;;;;5073472;28;20493;-80
2023/08/12 09:57:49;;;;;;;1999.90;999.90;;;20.80;99.90;;;;;;5073142;28;20536;-79
2023/08/12 10:00:19;;;;;;;1999.90;999.90;;;20.80;99.90;;;;;;5074007;28;20059;-80
2023/08/12 10:02:46;;;;;;;1999.90;999.90;;;20.80;99.90;;;;;;5055381;28;20074;-81
2023/08/12 10:05:26;;;;;;;1999.90;999.90;;;20.70;99.90;;;;;;5039455;28;20096;-80
2023/08/12 10:07:53;;;;;;;1999.90;999.90;;;20.60;99.90;;;;;;5040630;28;20091;-79
2023/08/12 10:10:22;;;;;;;1999.90;999.90;;;20.60;99.90;;;;;;5073275;28;20084;-80
2023/08/12 10:12:48;;;;;;;1999.90;999.90;;;20.60;99.90;;;;;;5073535;28;20543;-81
2023/08/12 10:15:14;;;;;;;1999.90;999.90;;;20.60;99.90;;;;;;5058033;28;20393;-81
2023/08/12 10:17:44;;;;;;;1999.90;999.90;;;20.60;99.90;;;;;;5043319;28;20040;-82
2023/08/12 10:20:14;;;;;;;1999.90;999.90;;;20.60;99.90;;;;;;5077712;28;20079;-82
2023/08/12 10:22:42;;;;;;;1999.90;999.90;;;20.50;99.90;;;;;;5059679;28;20048;-82
2023/08/12 10:25:11;;;;;;;1999.90;999.90;;;20.30;99.90;;;;;;5076383;28;20654;-83
2023/08/12 10:27:37;;;;;;;1999.90;999.90;;;20.50;99.90;;;;;;5059340;28;20106;-84
2023/08/12 10:30:05;;;;;;;1999.90;999.90;;;20.40;99.90;;;;;;5039556;28;20107;-81
2023/08/12 10:32:32;;;;;;;1999.90;999.90;;;20.40;99.90;;;;;;5058702;28;20098;-83
2023/08/12 10:34:58;;;;;;;1999.90;999.90;;;20.30;99.90;;;;;;5076524;28;20487;-82
2023/08/12 10:37:25;;;;;;;1999.90;999.90;;;20.20;99.90;;;;;;5076456;28;20047;-85
2023/08/12 10:39:55;;;;;;;1999.90;999.90;;;20.20;99.90;;;;;;5042202;28;20132;-86
2023/08/12 10:42:43;;;;;;;1999.90;999.90;;;20.10;99.90;;;;;;5058711;28;20045;-84
2023/08/12 10:45:11;;;;;;;1999.90;999.90;;;20.10;99.90;;;;;;5058691;28;20048;-82
2023/08/12 10:47:59;;;;;;;1999.90;999.90;;;20.10;99.90;;;;;;5058482;28;20072;-83
2023/08/12 10:50:26;;;;;;;1999.90;999.90;;;20.10;99.90;;;;;;5058803;28;20044;-83
2023/08/12 10:52:53;;;;;;;1999.90;999.90;;;20.10;99.90;;;;;;5076658;28;20392;-83
2023/08/12 10:55:24;;;;;;;1999.90;999.90;;;20.00;99.90;;;;;;5058181;28;20102;-84
2023/08/12 10:57:52;;;;;;;1999.90;999.90;;;20.00;99.90;;;;;;5058737;28;20049;-81
2023/08/12 11:00:22;;;;;;;1999.90;999.90;;;20.00;99.90;;;;;;5058606;28;20110;-82
2023/08/12 11:02:53;;;;;;;1999.90;999.90;;;20.10;99.90;;;;;;5058349;28;20411;-82
2023/08/12 11:05:19;;;;;;;1999.90;999.90;;;20.10;99.90;;;;;;5059140;28;20076;-82
2023/08/12 11:07:55;;;;;;;1999.90;999.90;;;20.00;99.90;;;;;;5041524;28;20094;-83
2023/08/12 11:10:26;;;;;;;1999.90;999.90;;;20.10;99.90;;;;;;5058674;28;20131;-83
2023/08/12 11:12:52;;;;;;;1999.90;999.90;;;20.10;99.90;;;;;;5058917;28;20044;-84
2023/08/12 11:15:19;;;;;;;1999.90;999.90;;;20.20;99.90;;;;;;5058178;28;20098;-85
2023/08/12 11:17:47;;;;;;;1999.90;999.90;;;20.20;99.90;;;;;;5042033;28;20107;-83
2023/08/12 11:20:13;;;;;;;1999.90;999.90;;;20.20;99.90;;;;;;5058081;28;20044;-83
2023/08/12 11:22:44;;;;;;;1999.90;999.90;;;20.20;99.90;;;;;;5058041;28;20051;-83
2023/08/12 11:25:12;;;;;;;1999.90;999.90;;;20.30;99.90;;;;;;5040620;28;20132;-84
2023/08/12 11:27:46;;;;;;;1999.90;999.90;;;20.30;99.90;;;;;;5057211;28;20056;-83
2023/08/12 11:30:16;;;;;;;1999.90;999.90;;;20.30;99.90;;;;;;5057373;28;20109;-82
2023/08/12 11:32:50;;;;;;;1999.90;999.90;;;20.30;99.90;;;;;;5041579;28;20056;-83
2023/08/12 11:35:17;;;;;;;1999.90;999.90;;;20.30;99.90;;;;;;5057713;28;20049;-83
2023/08/12 11:37:45;;;;;;;1999.90;999.90;;;20.30;99.90;;;;;;5041467;28;20064;-85
2023/08/12 11:40:14;;;;;;;1999.90;999.90;;;20.40;99.90;;;;;;5057849;28;20048;-90
2023/08/12 11:42:41;;;;;;;1999.90;999.90;;;20.30;99.90;;;;;;5025037;28;20043;-85
2023/08/12 11:45:08;;;;;;;1999.90;999.90;;;20.40;99.90;;;;;;5041129;28;20135;-82
2023/08/12 11:47:35;;;;;;;1999.90;999.90;;;20.40;99.90;;;;;;5041521;28;20447;-85
2023/08/12 11:50:08;;;;;;;1999.90;999.90;;;20.40;99.90;;;;;;5041897;28;20056;-85
2023/08/12 11:52:36;;;;;;;1999.90;999.90;;;20.40;99.90;;;;;;5075900;28;20063;-86
2023/08/12 11:55:02;;;;;;;1999.90;999.90;;;20.30;99.90;;;;;;5058276;28;20107;-86
2023/08/12 11:57:28;;;;;;;1999.90;999.90;;;20.40;99.90;;;;;;5041273;28;20131;-84